Time;durP1;ratioP1;P1;durP2;ratioP2;P2;SDS_P1;SDS_P2;PMS_P1;PMS_P2;Temp;Humidity;BMP_temperature;BMP_pressure;BME280_temperature;BME280_humidity;BME280_pressure;Samples;Min_cycle;Max_cycle;Signal;HPM_P1;HPM_P2
2021/12/24 00:02:13;;;;;;;56.92;29.75;;;;;;;;;;5076278;28;20009;-89
2021/12/24 00:04:38;;;;;;;64.75;31.38;;;;;;;;;;5058311;28;20020;-89
2021/12/24 00:07:03;;;;;;;136.63;44.80;;;;;;;;;;5076226;28;20029;-89
2021/12/24 00:09:32;;;;;;;81.13;32.08;;;;;;;;;;5076323;28;20239;-89
2021/12/24 00:12:00;;;;;;;46.72;22.13;;;;;;;;;;5075845;28;20028;-89
2021/12/24 00:14:27;;;;;;;57.70;27.17;;;;;;;;;;5057659;28;20474;-89
2021/12/24 00:16:56;;;;;;;58.33;23.73;;;;;;;;;;5056588;28;20129;-89
2021/12/24 00:19:48;;;;;;;65.55;30.20;;;;;;;;;;5054991;28;20423;-89
2021/12/24 00:22:47;;;;;;;;;;;;;;;;;;5073373;28;20035;-89
2021/12/24 00:36:00;;;;;;;67.35;29.88;;;;;;;;;;5072966;28;20059;-89
2021/12/24 00:38:26;;;;;;;394.88;55.22;;;;;;;;;;5054544;28;20020;-89
2021/12/24 00:40:51;;;;;;;97.10;35.27;;;;;;;;;;5072104;28;20024;-89
2021/12/24 00:43:16;;;;;;;157.45;37.10;;;;;;;;;;5072285;28;20290;-89
2021/12/24 00:45:43;;;;;;;220.98;45.83;;;;;;;;;;5054274;28;20020;-89
2021/12/24 00:48:10;;;;;;;58.67;29.95;;;;;;;;;;5072312;28;20021;-89
2021/12/24 00:50:53;;;;;;;79.18;29.67;;;;;;;;;;5072739;28;20055;-89
2021/12/24 00:55:57;;;;;;;113.90;34.72;;;;;;;;;;5072493;28;20048;-89
2021/12/24 00:58:22;;;;;;;103.78;34.58;;;;;;;;;;5054090;28;20066;-89
2021/12/24 01:00:47;;;;;;;59.43;30.17;;;;;;;;;;5054200;28;20087;-89
2021/12/24 01:03:12;;;;;;;103.40;40.17;;;;;;;;;;5053958;28;20339;-89
2021/12/24 01:05:38;;;;;;;140.20;48.00;;;;;;;;;;5054475;28;20055;-89
2021/12/24 01:08:05;;;;;;;111.82;41.45;;;;;;;;;;5072588;28;20042;-89
2021/12/24 01:10:32;;;;;;;74.78;32.55;;;;;;;;;;5072932;28;20024;-89
2021/12/24 01:12:58;;;;;;;63.90;30.33;;;;;;;;;;5073351;28;20395;-89
2021/12/24 01:15:24;;;;;;;87.20;34.58;;;;;;;;;;5072702;28;20095;-89
2021/12/24 01:18:01;;;;;;;69.32;31.35;;;;;;;;;;5053685;28;20020;-89
2021/12/24 01:20:41;;;;;;;80.05;33.47;;;;;;;;;;5053539;28;20033;-88
2021/12/24 01:23:33;;;;;;;81.57;37.03;;;;;;;;;;5071600;28;20021;-89
2021/12/24 01:26:19;;;;;;;137.52;42.88;;;;;;;;;;5071060;28;20036;-89
2021/12/24 01:39:39;;;;;;;110.15;38.35;;;;;;;;;;5071578;28;20028;-89
2021/12/24 01:44:49;;;;;;;98.72;39.80;;;;;;;;;;5071634;28;20058;-89
2021/12/24 01:47:14;;;;;;;125.28;44.35;;;;;;;;;;5053182;28;20068;-89
2021/12/24 01:49:40;;;;;;;117.17;45.73;;;;;;;;;;5071300;28;20028;-89
2021/12/24 01:52:06;;;;;;;131.30;46.58;;;;;;;;;;5052548;28;20377;-89
2021/12/24 01:54:32;;;;;;;119.82;46.50;;;;;;;;;;5071213;28;20393;-89
2021/12/24 01:56:57;;;;;;;115.10;42.78;;;;;;;;;;5071999;28;20043;-89
2021/12/24 01:59:22;;;;;;;121.95;40.80;;;;;;;;;;5053888;28;20024;-89
2021/12/24 02:01:49;;;;;;;110.80;43.30;;;;;;;;;;5053038;28;20025;-89
2021/12/24 02:04:15;;;;;;;81.20;35.70;;;;;;;;;;5070821;28;20621;-89
2021/12/24 02:06:41;;;;;;;88.65;36.35;;;;;;;;;;5052949;28;20029;-89
2021/12/24 02:09:07;;;;;;;112.30;42.33;;;;;;;;;;5053934;28;20040;-89
2021/12/24 02:11:37;;;;;;;158.80;49.03;;;;;;;;;;5073282;28;20056;-89
2021/12/24 02:14:06;;;;;;;165.63;42.00;;;;;;;;;;5072158;28;20012;-89
2021/12/24 02:17:06;;;;;;;189.63;50.00;;;;;;;;;;5055460;28;20024;-89
2021/12/24 02:30:30;;;;;;;158.65;39.90;;;;;;;;;;5073809;28;20036;-89
2021/12/24 02:32:55;;;;;;;93.90;36.58;;;;;;;;;;5055534;28;20040;-89
2021/12/24 02:35:20;;;;;;;154.90;49.73;;;;;;;;;;5055685;28;20012;-89
2021/12/24 02:37:46;;;;;;;113.43;43.08;;;;;;;;;;5055314;28;20627;-89
2021/12/24 02:40:11;;;;;;;143.23;46.85;;;;;;;;;;5073744;28;20028;-89
2021/12/24 02:42:36;;;;;;;191.98;46.10;;;;;;;;;;5073731;28;20025;-89
2021/12/24 02:45:02;;;;;;;96.07;36.80;;;;;;;;;;5073566;28;20023;-89
2021/12/24 02:47:43;;;;;;;92.00;38.78;;;;;;;;;;5055552;28;20150;-89
2021/12/24 02:55:24;;;;;;;85.45;39.30;;;;;;;;;;5073297;28;20047;-89
2021/12/24 02:57:50;;;;;;;145.70;43.42;;;;;;;;;;5055395;28;20464;-89
2021/12/24 03:00:19;;;;;;;94.80;41.20;;;;;;;;;;5073399;28;20613;-89
2021/12/24 03:02:46;;;;;;;93.00;39.80;;;;;;;;;;5056165;28;20021;-89
2021/12/24 03:05:12;;;;;;;134.73;48.75;;;;;;;;;;5077338;28;20031;-89
2021/12/24 03:07:38;;;;;;;91.07;39.50;;;;;;;;;;5059176;28;20020;-89
2021/12/24 03:10:05;;;;;;;145.93;49.50;;;;;;;;;;5077163;28;20379;-89
2021/12/24 03:12:30;;;;;;;100.53;44.03;;;;;;;;;;5059031;28;20790;-88
2021/12/24 03:14:56;;;;;;;148.80;48.65;;;;;;;;;;5059247;28;20013;-88
2021/12/24 03:17:24;;;;;;;194.63;54.55;;;;;;;;;;5059303;28;20017;-88
2021/12/24 03:19:51;;;;;;;132.70;45.97;;;;;;;;;;5059245;28;20017;-88
2021/12/24 03:25:01;;;;;;;104.88;46.10;;;;;;;;;;5077098;28;20542;-89
2021/12/24 03:27:26;;;;;;;179.35;52.33;;;;;;;;;;5076899;28;20088;-88
2021/12/24 03:29:51;;;;;;;144.80;48.20;;;;;;;;;;5075966;28;20480;-89
2021/12/24 03:32:16;;;;;;;158.73;53.28;;;;;;;;;;5055726;28;20043;-89
2021/12/24 03:34:42;;;;;;;252.43;59.00;;;;;;;;;;5055810;28;20020;-89
2021/12/24 03:37:07;;;;;;;139.60;47.42;;;;;;;;;;5074153;28;20503;-89
2021/12/24 03:39:33;;;;;;;132.50;50.15;;;;;;;;;;5073733;28;20024;-89
2021/12/24 03:41:58;;;;;;;147.73;51.45;;;;;;;;;;5056089;28;20023;-89
2021/12/24 03:44:32;;;;;;;120.65;47.03;;;;;;;;;;5073648;28;20012;-89
2021/12/24 03:47:05;;;;;;;144.85;49.88;;;;;;;;;;5055891;28;20024;-89
2021/12/24 03:49:40;;;;;;;86.10;41.10;;;;;;;;;;5073612;28;20028;-89
2021/12/24 03:52:23;;;;;;;113.35;47.13;;;;;;;;;;5074088;28;20033;-89
2021/12/24 03:54:56;;;;;;;103.65;46.40;;;;;;;;;;5055925;28;20472;-89
2021/12/24 03:57:21;;;;;;;119.53;49.03;;;;;;;;;;5074516;28;20027;-89
2021/12/24 03:59:46;;;;;;;131.43;50.33;;;;;;;;;;5073647;28;20024;-89
2021/12/24 04:02:11;;;;;;;128.00;50.93;;;;;;;;;;5073702;28;20017;-89
2021/12/24 04:04:38;;;;;;;116.90;47.50;;;;;;;;;;5056004;28;20307;-89
2021/12/24 04:07:03;;;;;;;128.88;49.42;;;;;;;;;;5055550;28;20059;-89
2021/12/24 04:09:30;;;;;;;129.85;50.90;;;;;;;;;;5055251;28;20086;-89
2021/12/24 04:11:55;;;;;;;132.75;47.47;;;;;;;;;;5055012;28;20063;-89
2021/12/24 04:14:20;;;;;;;110.00;46.67;;;;;;;;;;5054826;28;20499;-89
2021/12/24 04:16:46;;;;;;;260.63;60.20;;;;;;;;;;5073437;28;20258;-89
2021/12/24 04:24:51;;;;;;;139.68;51.25;;;;;;;;;;5075926;28;20104;-89
2021/12/24 04:27:17;;;;;;;119.45;47.55;;;;;;;;;;5058016;28;20029;-89
2021/12/24 04:29:42;;;;;;;102.97;44.22;;;;;;;;;;5057747;28;20484;-89
2021/12/24 04:32:18;;;;;;;100.38;42.53;;;;;;;;;;5058012;28;20047;-89
2021/12/24 04:34:47;;;;;;;105.95;43.67;;;;;;;;;;5057968;28;20541;-89
2021/12/24 05:01:51;;;;;;;111.82;46.65;;;;;;;;;;5075314;28;20518;-89
2021/12/24 05:04:24;;;;;;;115.47;48.55;;;;;;;;;;5057057;28;20033;-89
2021/12/24 05:06:56;;;;;;;96.20;47.30;;;;;;;;;;5074960;28;20012;-89
2021/12/24 05:09:24;;;;;;;127.82;50.88;;;;;;;;;;5057209;28;20036;-89
2021/12/24 05:11:49;;;;;;;118.47;49.60;;;;;;;;;;5057090;28;20032;-89
2021/12/24 05:14:15;;;;;;;93.10;47.78;;;;;;;;;;5056980;28;20073;-89
2021/12/24 05:16:47;;;;;;;120.90;48.78;;;;;;;;;;5056897;28;20016;-89
2021/12/24 05:21:56;;;;;;;110.63;49.97;;;;;;;;;;5075094;28;20039;-88
2021/12/24 05:24:23;;;;;;;114.75;49.00;;;;;;;;;;5074615;28;20024;-89
2021/12/24 05:26:50;;;;;;;103.05;47.92;;;;;;;;;;5055979;28;20490;-89
2021/12/24 05:29:16;;;;;;;89.45;45.92;;;;;;;;;;5074388;28;20077;-89
2021/12/24 05:31:42;;;;;;;117.70;50.58;;;;;;;;;;5074478;28;20029;-89
2021/12/24 05:34:07;;;;;;;148.13;51.00;;;;;;;;;;5056647;28;20103;-89
2021/12/24 05:36:32;;;;;;;155.73;54.13;;;;;;;;;;5074459;28;20730;-89
2021/12/24 05:38:58;;;;;;;109.28;47.83;;;;;;;;;;5076538;28;20060;-89
2021/12/24 05:41:23;;;;;;;120.68;49.08;;;;;;;;;;5072840;28;20023;-89
2021/12/24 05:43:49;;;;;;;142.52;53.45;;;;;;;;;;5054039;28;20020;-89
2021/12/24 05:46:14;;;;;;;114.07;49.30;;;;;;;;;;5053777;28;20472;-89
2021/12/24 05:48:54;;;;;;;185.82;56.75;;;;;;;;;;5108414;27;20380;-88
2021/12/24 05:51:19;;;;;;;141.10;55.10;;;;;;;;;;5108454;28;20136;-87
2021/12/24 05:53:45;;;;;;;137.02;51.38;;;;;;;;;;5108171;28;20361;-87
2021/12/24 05:56:10;;;;;;;128.98;48.58;;;;;;;;;;5106762;28;20024;-87
2021/12/24 05:58:35;;;;;;;109.55;46.40;;;;;;;;;;5107244;28;20023;-87
2021/12/24 06:01:00;;;;;;;122.68;49.22;;;;;;;;;;5106980;28;20011;-88
2021/12/24 06:03:26;;;;;;;160.13;54.22;;;;;;;;;;5106945;28;20022;-87
2021/12/24 06:05:51;;;;;;;140.98;50.90;;;;;;;;;;5108102;28;20020;-88
2021/12/24 06:08:16;;;;;;;125.55;50.42;;;;;;;;;;5106558;28;20032;-88
2021/12/24 06:10:42;;;;;;;151.30;52.10;;;;;;;;;;5107912;28;20028;-88
2021/12/24 06:13:07;;;;;;;122.57;47.30;;;;;;;;;;5106698;28;20020;-87
2021/12/24 06:15:41;;;;;;;142.48;46.75;;;;;;;;;;5108117;28;20030;-87
2021/12/24 06:18:12;;;;;;;125.38;47.80;;;;;;;;;;5106512;28;20031;-88
2021/12/24 06:20:39;;;;;;;99.65;42.40;;;;;;;;;;5107966;28;20028;-88
2021/12/24 06:23:07;;;;;;;103.35;42.50;;;;;;;;;;5108500;28;20032;-88
2021/12/24 06:25:32;;;;;;;138.57;46.95;;;;;;;;;;5108160;28;20448;-88
2021/12/24 06:27:57;;;;;;;122.18;44.40;;;;;;;;;;5107820;28;20234;-88
2021/12/24 06:30:27;;;;;;;88.43;39.33;;;;;;;;;;5107373;28;20031;-88
2021/12/24 06:32:52;;;;;;;123.90;44.33;;;;;;;;;;5109175;28;20258;-88
2021/12/24 06:35:17;;;;;;;109.27;40.87;;;;;;;;;;5110721;28;20065;-88
2021/12/24 06:37:43;;;;;;;159.55;49.22;;;;;;;;;;5110508;28;20250;-88
2021/12/24 06:40:08;;;;;;;200.38;55.85;;;;;;;;;;5110591;28;20027;-88
2021/12/24 06:42:34;;;;;;;100.68;42.15;;;;;;;;;;5109125;28;20026;-87
2021/12/24 06:45:01;;;;;;;150.63;47.95;;;;;;;;;;5109799;28;20471;-88
2021/12/24 06:47:26;;;;;;;102.68;40.33;;;;;;;;;;5110134;28;20056;-87
2021/12/24 06:49:51;;;;;;;169.18;48.28;;;;;;;;;;5110136;28;20023;-87
2021/12/24 06:52:17;;;;;;;157.40;48.13;;;;;;;;;;5109822;28;20424;-87
2021/12/24 06:54:42;;;;;;;155.48;47.42;;;;;;;;;;5110043;28;20353;-87
2021/12/24 06:57:12;;;;;;;146.85;44.88;;;;;;;;;;5108906;28;20018;-87
2021/12/24 06:59:37;;;;;;;121.10;43.65;;;;;;;;;;5098560;28;20030;-87
2021/12/24 07:02:03;;;;;;;197.85;51.95;;;;;;;;;;5096350;28;20099;-87
2021/12/24 07:04:28;;;;;;;162.02;50.40;;;;;;;;;;5095044;28;20016;-87
2021/12/24 07:06:53;;;;;;;131.60;46.35;;;;;;;;;;5094910;28;20394;-87
2021/12/24 07:09:18;;;;;;;159.23;49.03;;;;;;;;;;5096420;28;20032;-87
2021/12/24 07:11:44;;;;;;;147.43;48.70;;;;;;;;;;5095067;28;20491;-87
2021/12/24 07:14:09;;;;;;;117.00;41.70;;;;;;;;;;5094605;28;20334;-88
2021/12/24 07:16:34;;;;;;;94.93;36.03;;;;;;;;;;5094764;28;20028;-87
2021/12/24 07:18:59;;;;;;;99.00;37.13;;;;;;;;;;5096233;28;20013;-87
2021/12/24 07:21:25;;;;;;;242.68;50.60;;;;;;;;;;5096205;28;20282;-87
2021/12/24 07:23:50;;;;;;;116.10;39.47;;;;;;;;;;5094850;28;20016;-87
2021/12/24 07:26:16;;;;;;;168.50;46.60;;;;;;;;;;5094840;28;20016;-87
2021/12/24 07:28:41;;;;;;;141.13;41.92;;;;;;;;;;5094640;28;20170;-87
2021/12/24 07:31:06;;;;;;;129.87;40.37;;;;;;;;;;5094589;28;20017;-87
2021/12/24 07:33:31;;;;;;;159.73;43.27;;;;;;;;;;5095815;28;20254;-88
2021/12/24 07:35:57;;;;;;;177.13;47.40;;;;;;;;;;5094654;28;20290;-88
2021/12/24 07:38:22;;;;;;;122.88;41.92;;;;;;;;;;5094123;28;20020;-87
2021/12/24 07:40:47;;;;;;;109.85;38.13;;;;;;;;;;5094160;28;20069;-87
2021/12/24 07:43:13;;;;;;;127.40;41.22;;;;;;;;;;5094317;28;20728;-87
2021/12/24 07:45:39;;;;;;;170.98;43.75;;;;;;;;;;5095102;28;20026;-86
2021/12/24 07:48:10;;;;;;;171.80;43.15;;;;;;;;;;5093431;28;20047;-87
2021/12/24 07:53:02;;;;;;;123.85;41.78;;;;;;;;;;5095641;28;20016;-87
2021/12/24 07:55:28;;;;;;;169.13;44.40;;;;;;;;;;5095129;28;20049;-87
2021/12/24 07:57:53;;;;;;;145.35;40.92;;;;;;;;;;5095363;28;20028;-87
2021/12/24 08:00:22;;;;;;;225.77;49.20;;;;;;;;;;5093821;28;20035;-87
2021/12/24 08:02:47;;;;;;;126.75;40.38;;;;;;;;;;5093603;28;20018;-87
2021/12/24 08:05:13;;;;;;;162.95;44.30;;;;;;;;;;5093767;28;20434;-87
2021/12/24 08:07:38;;;;;;;162.95;48.47;;;;;;;;;;5095110;28;20046;-88
2021/12/24 08:10:04;;;;;;;157.73;45.22;;;;;;;;;;5094690;28;20024;-89
2021/12/24 08:12:29;;;;;;;158.98;44.00;;;;;;;;;;5094988;28;20015;-89
2021/12/24 08:14:54;;;;;;;126.50;40.10;;;;;;;;;;5094977;28;20048;-89
2021/12/24 08:17:19;;;;;;;128.80;43.10;;;;;;;;;;5093699;28;20259;-88
2021/12/24 08:19:44;;;;;;;160.27;47.20;;;;;;;;;;5093450;28;20110;-88
2021/12/24 08:22:10;;;;;;;116.30;39.30;;;;;;;;;;5092912;28;20814;-88
2021/12/24 08:24:36;;;;;;;157.38;46.92;;;;;;;;;;5090444;28;20273;-88
2021/12/24 08:27:01;;;;;;;139.85;41.35;;;;;;;;;;5090344;28;20035;-88
2021/12/24 08:29:26;;;;;;;147.20;45.78;;;;;;;;;;5090377;28;20023;-88
2021/12/24 08:31:52;;;;;;;163.25;47.33;;;;;;;;;;5090526;28;20027;-88
2021/12/24 08:34:18;;;;;;;127.20;41.33;;;;;;;;;;5092491;28;20023;-88
2021/12/24 08:36:45;;;;;;;133.77;45.63;;;;;;;;;;5096191;28;20008;-87
2021/12/24 08:39:10;;;;;;;125.82;43.22;;;;;;;;;;5091962;28;20024;-88
2021/12/24 08:41:36;;;;;;;98.25;36.75;;;;;;;;;;5090314;28;20043;-88
2021/12/24 08:44:01;;;;;;;110.88;39.08;;;;;;;;;;5092276;28;20035;-89
2021/12/24 08:46:26;;;;;;;108.32;41.10;;;;;;;;;;5091242;28;20020;-88
2021/12/24 08:48:52;;;;;;;134.07;41.90;;;;;;;;;;5090022;28;20413;-88
2021/12/24 08:51:17;;;;;;;115.05;38.30;;;;;;;;;;5091782;28;20274;-88
2021/12/24 08:53:42;;;;;;;96.28;38.13;;;;;;;;;;5094112;28;20086;-88
2021/12/24 08:56:07;;;;;;;96.13;37.77;;;;;;;;;;5093051;28;20115;-88
2021/12/24 08:58:32;;;;;;;88.95;34.95;;;;;;;;;;5092654;28;20952;-88
2021/12/24 09:00:58;;;;;;;100.30;38.45;;;;;;;;;;5092917;28;20024;-88
2021/12/24 09:03:23;;;;;;;78.03;34.28;;;;;;;;;;5093938;28;20023;-88
2021/12/24 09:05:48;;;;;;;82.90;35.60;;;;;;;;;;5093919;28;20016;-88
2021/12/24 09:08:13;;;;;;;85.05;36.70;;;;;;;;;;5093642;28;20332;-88
2021/12/24 09:10:39;;;;;;;88.00;36.47;;;;;;;;;;5093634;28;20099;-88
2021/12/24 09:13:04;;;;;;;71.65;31.48;;;;;;;;;;5093761;28;20463;-88
2021/12/24 09:15:30;;;;;;;81.50;34.40;;;;;;;;;;5093463;28;20016;-88
2021/12/24 09:17:59;;;;;;;81.47;33.88;;;;;;;;;;5093210;28;20329;-88
2021/12/24 09:20:30;;;;;;;93.78;35.95;;;;;;;;;;5092600;28;20043;-87
2021/12/24 09:22:55;;;;;;;113.75;38.20;;;;;;;;;;5090668;28;20038;-87
2021/12/24 09:25:22;;;;;;;81.80;33.88;;;;;;;;;;5092405;28;20008;-88
2021/12/24 09:27:48;;;;;;;77.05;34.30;;;;;;;;;;5092245;28;20032;-88
2021/12/24 09:30:13;;;;;;;80.63;34.55;;;;;;;;;;5092405;28;20019;-88
2021/12/24 09:32:38;;;;;;;84.35;33.95;;;;;;;;;;5092050;28;20016;-88
2021/12/24 09:35:04;;;;;;;85.22;33.83;;;;;;;;;;5090998;28;20746;-87
2021/12/24 09:37:29;;;;;;;87.03;35.90;;;;;;;;;;5090796;28;20031;-87
2021/12/24 09:39:54;;;;;;;78.30;32.05;;;;;;;;;;5092151;28;20444;-88
2021/12/24 09:42:20;;;;;;;66.55;31.92;;;;;;;;;;5092541;28;20008;-87
2021/12/24 09:44:45;;;;;;;67.63;30.83;;;;;;;;;;5090551;28;20027;-87
2021/12/24 09:47:10;;;;;;;63.72;31.73;;;;;;;;;;5091496;28;20056;-88
2021/12/24 09:49:35;;;;;;;61.97;29.40;;;;;;;;;;5090854;28;20107;-87
2021/12/24 09:52:02;;;;;;;58.70;27.65;;;;;;;;;;5091892;28;20071;-87
2021/12/24 09:54:27;;;;;;;63.53;29.77;;;;;;;;;;5091850;28;20018;-87
2021/12/24 09:56:54;;;;;;;54.78;27.17;;;;;;;;;;5092207;28;20098;-87
2021/12/24 09:59:19;;;;;;;65.57;28.10;;;;;;;;;;5092029;28;20076;-87
2021/12/24 10:01:58;;;;;;;66.57;29.50;;;;;;;;;;5090634;28;20028;-87
2021/12/24 10:04:25;;;;;;;61.03;28.08;;;;;;;;;;5091819;28;20039;-88
2021/12/24 10:06:53;;;;;;;53.78;25.75;;;;;;;;;;5091687;28;20036;-87
2021/12/24 10:09:19;;;;;;;43.58;22.58;;;;;;;;;;5090617;28;20031;-88
2021/12/24 10:11:50;;;;;;;48.30;23.77;;;;;;;;;;5092326;28;20073;-88
2021/12/24 10:14:17;;;;;;;49.67;23.30;;;;;;;;;;5091709;28;20468;-88
2021/12/24 10:16:44;;;;;;;44.28;20.30;;;;;;;;;;5090492;28;20049;-87
2021/12/24 10:19:09;;;;;;;42.92;20.90;;;;;;;;;;5090446;28;20042;-87
2021/12/24 10:21:35;;;;;;;36.58;19.85;;;;;;;;;;5091867;28;20024;-87
2021/12/24 10:24:01;;;;;;;34.50;18.45;;;;;;;;;;5090718;28;20016;-87
2021/12/24 10:26:26;;;;;;;37.00;19.48;;;;;;;;;;5093138;28;20024;-87
2021/12/24 10:28:53;;;;;;;41.65;19.05;;;;;;;;;;5090828;28;20387;-87
2021/12/24 10:31:19;;;;;;;36.80;19.05;;;;;;;;;;5091991;28;20024;-88
2021/12/24 10:34:03;;;;;;;36.30;19.55;;;;;;;;;;5091303;28;20027;-88
2021/12/24 10:36:28;;;;;;;36.85;18.45;;;;;;;;;;5094357;28;20047;-88
2021/12/24 10:38:54;;;;;;;37.90;19.40;;;;;;;;;;5094184;28;20023;-88
2021/12/24 10:41:19;;;;;;;34.50;18.25;;;;;;;;;;5095996;28;20020;-87
2021/12/24 10:43:44;;;;;;;34.75;17.90;;;;;;;;;;5093723;28;20467;-88
2021/12/24 10:46:12;;;;;;;32.10;17.13;;;;;;;;;;5095477;28;20016;-87
2021/12/24 10:48:45;;;;;;;32.85;18.30;;;;;;;;;;5094991;28;20305;-87
2021/12/24 10:51:19;;;;;;;30.80;16.80;;;;;;;;;;5095392;28;20882;-87
2021/12/24 10:54:04;;;;;;;28.88;16.05;;;;;;;;;;5093990;28;20079;-88
2021/12/24 10:56:29;;;;;;;33.63;17.60;;;;;;;;;;5094206;28;20024;-87
2021/12/24 10:58:54;;;;;;;31.05;17.23;;;;;;;;;;5095343;28;20053;-88
2021/12/24 11:01:19;;;;;;;31.92;17.08;;;;;;;;;;5093614;28;20472;-88
2021/12/24 11:03:45;;;;;;;34.45;16.88;;;;;;;;;;5094584;28;20056;-87
2021/12/24 11:06:11;;;;;;;31.33;17.00;;;;;;;;;;5093798;28;20024;-88
2021/12/24 11:08:37;;;;;;;37.30;17.27;;;;;;;;;;5091773;28;20097;-88
2021/12/24 11:11:05;;;;;;;36.28;18.15;;;;;;;;;;5093522;28;20023;-88
2021/12/24 11:13:37;;;;;;;36.55;17.00;;;;;;;;;;5091979;28;20024;-87
2021/12/24 11:16:03;;;;;;;26.38;15.10;;;;;;;;;;5093541;28;20016;-87
2021/12/24 11:18:34;;;;;;;28.17;16.10;;;;;;;;;;5091534;28;20069;-88
2021/12/24 11:21:10;;;;;;;29.98;14.20;;;;;;;;;;5092930;28;20024;-88
2021/12/24 11:23:37;;;;;;;13.82;8.60;;;;;;;;;;5093100;28;20032;-92
2021/12/24 11:26:07;;;;;;;11.35;6.45;;;;;;;;;;5093069;28;20518;-92
2021/12/24 11:28:33;;;;;;;12.30;5.82;;;;;;;;;;5092643;28;20444;-92
2021/12/24 11:31:00;;;;;;;8.75;3.80;;;;;;;;;;5093713;28;20081;-92
2021/12/24 11:33:29;;;;;;;5.63;2.72;;;;;;;;;;5094380;28;20020;-93
2021/12/24 11:35:55;;;;;;;8.55;2.38;;;;;;;;;;5094145;28;20024;-92
2021/12/24 11:38:43;;;;;;;10.35;1.95;;;;;;;;;;5093908;28;20108;-92
2021/12/24 11:41:13;;;;;;;7.43;2.03;;;;;;;;;;5078883;28;20043;-91
2021/12/24 11:43:40;;;;;;;4.10;1.65;;;;;;;;;;5091309;28;20162;-88
2021/12/24 11:46:07;;;;;;;12.05;2.08;;;;;;;;;;5092762;28;20024;-88
2021/12/24 11:48:33;;;;;;;8.93;1.98;;;;;;;;;;5092372;28;20534;-88
2021/12/24 11:51:08;;;;;;;10.43;2.10;;;;;;;;;;5091307;28;20028;-88
2021/12/24 11:53:33;;;;;;;10.98;2.13;;;;;;;;;;5091169;28;20031;-88
2021/12/24 11:56:04;;;;;;;5.50;2.05;;;;;;;;;;5092705;28;20024;-88
2021/12/24 11:58:32;;;;;;;7.32;1.40;;;;;;;;;;5092351;28;20445;-88
2021/12/24 12:00:57;;;;;;;7.05;1.77;;;;;;;;;;5092672;28;20044;-88
2021/12/24 12:03:30;;;;;;;6.78;1.50;;;;;;;;;;5091094;28;20153;-88
2021/12/24 12:05:55;;;;;;;12.07;1.83;;;;;;;;;;5091917;28;20051;-87
2021/12/24 12:08:27;;;;;;;6.68;1.70;;;;;;;;;;5090522;28;20056;-87
2021/12/24 12:10:53;;;;;;;7.93;1.65;;;;;;;;;;5092034;28;20020;-87
2021/12/24 12:13:37;;;;;;;9.23;1.50;;;;;;;;;;5092128;28;20525;-88
2021/12/24 12:16:04;;;;;;;11.55;1.92;;;;;;;;;;5092075;28;20061;-88
2021/12/24 12:18:30;;;;;;;4.68;1.35;;;;;;;;;;5092204;28;20107;-88
2021/12/24 12:21:09;;;;;;;5.63;1.48;;;;;;;;;;5091198;28;20039;-88
2021/12/24 12:24:57;;;;;;;7.00;1.52;;;;;;;;;;5092003;28;20375;-88
2021/12/24 12:26:41;;;;;;;6.20;1.45;;;;;;;;;;5092136;28;20043;-88
2021/12/24 12:29:27;;;;;;;8.20;1.73;;;;;;;;;;5092109;28;20065;-87
2021/12/24 12:32:11;;;;;;;8.73;1.73;;;;;;;;;;5091086;28;20028;-88
2021/12/24 12:34:39;;;;;;;6.07;1.38;;;;;;;;;;5090407;28;20103;-88
2021/12/24 12:37:22;;;;;;;7.85;1.83;;;;;;;;;;5092403;28;20040;-87
2021/12/24 12:39:49;;;;;;;6.35;1.55;;;;;;;;;;5092688;28;20024;-88
2021/12/24 12:42:17;;;;;;;8.30;2.75;;;;;;;;;;5091831;28;20479;-88
2021/12/24 12:44:45;;;;;;;4.35;2.03;;;;;;;;;;5090213;28;20491;-88
2021/12/24 12:47:16;;;;;;;5.38;1.42;;;;;;;;;;5090587;28;20052;-87
2021/12/24 12:49:41;;;;;;;5.88;1.77;;;;;;;;;;5092899;28;20016;-88
2021/12/24 12:52:11;;;;;;;8.30;2.22;;;;;;;;;;5093510;28;20018;-88
2021/12/24 12:54:38;;;;;;;12.13;2.28;;;;;;;;;;5093687;28;20498;-88
2021/12/24 12:57:10;;;;;;;6.40;1.55;;;;;;;;;;5091783;28;20012;-88
2021/12/24 12:59:35;;;;;;;8.77;1.90;;;;;;;;;;5093727;28;20691;-88
2021/12/24 13:02:01;;;;;;;19.52;2.90;;;;;;;;;;5093831;28;20059;-87
2021/12/24 13:04:26;;;;;;;8.63;2.03;;;;;;;;;;5092646;28;20023;-88
2021/12/24 13:06:52;;;;;;;9.82;1.85;;;;;;;;;;5092627;28;20024;-87
2021/12/24 13:09:21;;;;;;;5.30;1.52;;;;;;;;;;5091109;28;20418;-87
2021/12/24 13:11:54;;;;;;;7.95;1.90;;;;;;;;;;5091345;28;20016;-88
2021/12/24 13:14:20;;;;;;;5.60;2.10;;;;;;;;;;5092297;28;20024;-87
2021/12/24 13:16:50;;;;;;;6.53;1.95;;;;;;;;;;5092668;28;20018;-87
2021/12/24 13:24:52;;;;;;;17.08;7.07;;;;;;;;;;5092979;28;20027;-88
2021/12/24 13:27:18;;;;;;;13.50;5.03;;;;;;;;;;5091469;28;20090;-88
2021/12/24 13:29:44;;;;;;;10.85;4.40;;;;;;;;;;5091620;28;20019;-88
2021/12/24 13:32:09;;;;;;;13.27;6.93;;;;;;;;;;5091452;28;20566;-88
2021/12/24 13:34:36;;;;;;;5.97;2.08;;;;;;;;;;5092023;28;20024;-88
2021/12/24 13:37:02;;;;;;;4.30;2.20;;;;;;;;;;5091708;28;20475;-88
2021/12/24 13:39:27;;;;;;;4.60;2.13;;;;;;;;;;5095155;28;20020;-88
2021/12/24 13:42:19;;;;;;;6.93;2.50;;;;;;;;;;5092375;28;20028;-88
2021/12/24 13:44:45;;;;;;;5.68;1.88;;;;;;;;;;5088170;28;20069;-88
2021/12/24 13:47:14;;;;;;;4.40;1.30;;;;;;;;;;5091570;28;20130;-87
2021/12/24 13:50:24;;;;;;;3.55;0.88;;;;;;;;;;5090909;28;20103;-87
2021/12/24 13:55:36;;;;;;;10.23;1.60;;;;;;;;;;5091309;28;20039;-87
2021/12/24 13:58:06;;;;;;;7.40;1.30;;;;;;;;;;5090588;28;20016;-87
2021/12/24 14:00:33;;;;;;;4.07;1.30;;;;;;;;;;5091217;28;20074;-87
2021/12/24 14:03:00;;;;;;;5.72;1.90;;;;;;;;;;5091085;28;20645;-88
2021/12/24 14:05:25;;;;;;;8.10;1.60;;;;;;;;;;5090111;28;20024;-87
2021/12/24 14:08:08;;;;;;;7.03;2.30;;;;;;;;;;5089804;28;20043;-87
2021/12/24 14:10:33;;;;;;;7.85;2.10;;;;;;;;;;5095299;28;20070;-87
2021/12/24 14:13:06;;;;;;;8.25;2.13;;;;;;;;;;5093748;28;20113;-87
2021/12/24 14:15:41;;;;;;;4.10;1.55;;;;;;;;;;5095020;28;20047;-87
2021/12/24 14:18:29;;;;;;;18.25;7.25;;;;;;;;;;5093391;28;20119;-87
2021/12/24 14:23:42;;;;;;;12.63;2.35;;;;;;;;;;5083545;28;20035;-87
2021/12/24 14:26:07;;;;;;;5.85;1.50;;;;;;;;;;5094471;28;20023;-87
2021/12/24 14:28:33;;;;;;;13.23;5.00;;;;;;;;;;5093688;28;20472;-87
2021/12/24 14:31:00;;;;;;;10.07;4.47;;;;;;;;;;5094934;28;20357;-87
2021/12/24 14:33:25;;;;;;;13.30;7.05;;;;;;;;;;5093674;28;20028;-87
2021/12/24 14:35:52;;;;;;;11.52;5.03;;;;;;;;;;5095182;28;20028;-87
2021/12/24 14:38:18;;;;;;;6.65;2.30;;;;;;;;;;5093831;28;20031;-87
2021/12/24 14:40:43;;;;;;;4.50;2.53;;;;;;;;;;5093683;28;20394;-87
2021/12/24 14:43:13;;;;;;;7.20;3.05;;;;;;;;;;5093507;28;20115;-87
2021/12/24 14:45:39;;;;;;;5.68;1.88;;;;;;;;;;5095059;28;20023;-87
2021/12/24 14:48:05;;;;;;;7.90;2.35;;;;;;;;;;5093174;28;20144;-87
2021/12/24 14:50:31;;;;;;;9.15;2.25;;;;;;;;;;5094589;28;20091;-87
2021/12/24 14:53:11;;;;;;;4.85;2.25;;;;;;;;;;5094284;28;20065;-87
2021/12/24 14:55:45;;;;;;;5.95;1.60;;;;;;;;;;5093052;28;20031;-87
2021/12/24 14:58:11;;;;;;;4.10;1.20;;;;;;;;;;5093025;28;20387;-87
2021/12/24 15:00:38;;;;;;;6.22;1.48;;;;;;;;;;5093487;28;20020;-87
2021/12/24 15:03:05;;;;;;;7.75;1.55;;;;;;;;;;5093323;28;20012;-87
2021/12/24 15:05:35;;;;;;;6.88;1.55;;;;;;;;;;5094536;28;20020;-87
2021/12/24 15:08:10;;;;;;;7.55;1.80;;;;;;;;;;5094497;28;20043;-87
2021/12/24 15:10:35;;;;;;;5.13;1.58;;;;;;;;;;5092904;28;20028;-87
2021/12/24 15:13:08;;;;;;;2.78;1.17;;;;;;;;;;5092603;28;20053;-87
2021/12/24 15:15:34;;;;;;;9.65;2.45;;;;;;;;;;5092860;28;20022;-87
2021/12/24 15:17:59;;;;;;;4.90;1.77;;;;;;;;;;5094395;28;20020;-87
2021/12/24 15:20:27;;;;;;;4.97;1.30;;;;;;;;;;5093030;28;20081;-86
2021/12/24 15:22:52;;;;;;;6.45;1.63;;;;;;;;;;5094554;28;20022;-87
2021/12/24 15:25:17;;;;;;;6.32;1.48;;;;;;;;;;5092724;28;20103;-87
2021/12/24 15:27:42;;;;;;;3.58;1.30;;;;;;;;;;5093964;28;20024;-87
2021/12/24 15:30:10;;;;;;;4.85;1.30;;;;;;;;;;5094040;28;20043;-87
2021/12/24 15:32:35;;;;;;;1.60;1.20;;;;;;;;;;5092523;28;20042;-87
2021/12/24 15:35:00;;;;;;;3.22;1.58;;;;;;;;;;5092884;28;20028;-87
2021/12/24 15:37:26;;;;;;;4.22;1.50;;;;;;;;;;5092757;28;20095;-87
2021/12/24 15:39:51;;;;;;;8.90;1.40;;;;;;;;;;5092637;28;20028;-87
2021/12/24 15:42:17;;;;;;;3.77;1.40;;;;;;;;;;5092293;28;20024;-87
2021/12/24 15:44:46;;;;;;;5.82;2.22;;;;;;;;;;5092303;28;20254;-87
2021/12/24 15:47:12;;;;;;;6.97;2.00;;;;;;;;;;5092009;28;20064;-87
2021/12/24 15:49:37;;;;;;;22.60;4.97;;;;;;;;;;5092351;28;20016;-87
2021/12/24 15:52:02;;;;;;;4.40;2.15;;;;;;;;;;5092457;28;20057;-87
2021/12/24 15:54:28;;;;;;;6.22;1.98;;;;;;;;;;5090732;28;20220;-87
2021/12/24 15:56:53;;;;;;;4.15;1.50;;;;;;;;;;5090899;28;20057;-87